Etusivu
METAR-TAF:

METAR-TAF

Lentoasemat :

Ermelo, Etelä-Afrikka

Leveyspiiri: 26-29-44S, Pituuspiiri: 29-58-47E, korkeus merenpinnasta: 1737 m

Tämänhetkinen sää

Tämä raportti tehtiin 9 tuntia ja 58 minuuttia sitten, kello 15.14 UTC
Tuuli 9 kn lounaasta
Lämpötila 15°C
Kosteus 72%
Ilmanpaine 1027 hPa
Näkyvyys 10 km tai enemmän
Muutamia pilviä 3000 ft:n korkeudessa, Kasvava cumulus-pilvi.
Muutamia pilviä , Cumulonimbus.
Hajonneita pilviä 6000 ft:n korkeudessa
ukkosmyrsky

METAR: FAEO 141514Z 23009KT 9999 TS FEW030TCU FEW///CB BKN060 15/10 Q1027

Aika: 03:12 (01:12 UTC)


TAF: puuttuu

Säähavainnot ja -ennusteet yli 4000 lentoasemalta (METAR- ja TAF-raportit).

Käytössä olevat sääasemat on merkitty karttaan keltaisilla ja punaisilla pisteillä.

Aseta hiiri pisteen päälle nähdäksesi sääaseman nimen.

Klikkaa sitten nähdäksesi säähavainnot ja -ennusteet.

Kartan vaihtaminen: klikkaa mustalla rastilla varustettuja vihreitä pisteitä, niin voit zoomata sisään; viivalla varustettua vihreää pistettä, niin voit zoomata ulos tai vihreitä nuolia, niin pääset viereisille kartoille.


METAR-TAF: